sensor_id;sensor_type;location;lat;lon;timestamp;temperature;humidity
77839;SHT31;67034;43.226;27.932;2023-07-09T00:00:24;23.18;43.79
77839;SHT31;67034;43.226;27.932;2023-07-09T00:02:49;23.22;43.66
77839;SHT31;67034;43.226;27.932;2023-07-09T00:05:16;23.27;43.64
77839;SHT31;67034;43.226;27.932;2023-07-09T00:07:43;23.14;43.25
77839;SHT31;67034;43.226;27.932;2023-07-09T00:10:19;23.09;43.52
77839;SHT31;67034;43.226;27.932;2023-07-09T00:12:46;23.06;43.71
77839;SHT31;67034;43.226;27.932;2023-07-09T00:15:13;23.08;43.75
77839;SHT31;67034;43.226;27.932;2023-07-09T00:17:41;23.02;43.71
77839;SHT31;67034;43.226;27.932;2023-07-09T00:20:10;23.02;43.63
77839;SHT31;67034;43.226;27.932;2023-07-09T00:22:39;22.98;43.53
77839;SHT31;67034;43.226;27.932;2023-07-09T00:25:06;22.90;43.61
77839;SHT31;67034;43.226;27.932;2023-07-09T00:27:32;22.85;43.61
77839;SHT31;67034;43.226;27.932;2023-07-09T00:29:59;22.88;43.72
77839;SHT31;67034;43.226;27.932;2023-07-09T00:32:24;22.91;43.78
77839;SHT31;67034;43.226;27.932;2023-07-09T00:34:51;22.85;43.97
77839;SHT31;67034;43.226;27.932;2023-07-09T00:37:20;22.81;43.77
77839;SHT31;67034;43.226;27.932;2023-07-09T00:39:46;22.83;43.82
77839;SHT31;67034;43.226;27.932;2023-07-09T00:42:14;22.83;43.95
77839;SHT31;67034;43.226;27.932;2023-07-09T00:44:43;22.78;44.06
77839;SHT31;67034;43.226;27.932;2023-07-09T00:47:20;22.75;44.26
77839;SHT31;67034;43.226;27.932;2023-07-09T00:49:47;22.74;44.40
77839;SHT31;67034;43.226;27.932;2023-07-09T00:52:22;22.74;44.54
77839;SHT31;67034;43.226;27.932;2023-07-09T00:54:51;22.77;44.56
77839;SHT31;67034;43.226;27.932;2023-07-09T00:57:21;22.77;44.72
77839;SHT31;67034;43.226;27.932;2023-07-09T00:59:52;22.74;44.78
77839;SHT31;67034;43.226;27.932;2023-07-09T01:02:21;22.81;44.60
77839;SHT31;67034;43.226;27.932;2023-07-09T01:04:49;22.83;44.58
77839;SHT31;67034;43.226;27.932;2023-07-09T01:07:16;22.81;44.74
77839;SHT31;67034;43.226;27.932;2023-07-09T01:09:42;22.87;44.60
77839;SHT31;67034;43.226;27.932;2023-07-09T01:12:09;22.83;44.73
77839;SHT31;67034;43.226;27.932;2023-07-09T01:14:35;22.81;44.88
77839;SHT31;67034;43.226;27.932;2023-07-09T01:17:05;22.81;44.85
77839;SHT31;67034;43.226;27.932;2023-07-09T01:19:41;22.74;44.85
77839;SHT31;67034;43.226;27.932;2023-07-09T01:22:14;22.72;44.83
77839;SHT31;67034;43.226;27.932;2023-07-09T01:24:53;22.74;45.39
77839;SHT31;67034;43.226;27.932;2023-07-09T01:27:21;22.61;46.54
77839;SHT31;67034;43.226;27.932;2023-07-09T01:29:48;22.46;47.36
77839;SHT31;67034;43.226;27.932;2023-07-09T01:32:15;22.36;47.83
77839;SHT31;67034;43.226;27.932;2023-07-09T01:34:44;22.24;48.31
77839;SHT31;67034;43.226;27.932;2023-07-09T01:37:09;22.12;48.49
77839;SHT31;67034;43.226;27.932;2023-07-09T01:39:36;21.98;48.25
77839;SHT31;67034;43.226;27.932;2023-07-09T01:42:03;21.98;48.07
77839;SHT31;67034;43.226;27.932;2023-07-09T01:44:34;21.90;47.96
77839;SHT31;67034;43.226;27.932;2023-07-09T01:47:01;21.89;47.78
77839;SHT31;67034;43.226;27.932;2023-07-09T01:49:28;21.92;47.89
77839;SHT31;67034;43.226;27.932;2023-07-09T01:51:55;21.95;47.88
77839;SHT31;67034;43.226;27.932;2023-07-09T01:54:21;21.89;48.11
77839;SHT31;67034;43.226;27.932;2023-07-09T01:56:48;21.89;48.09
77839;SHT31;67034;43.226;27.932;2023-07-09T01:59:14;21.85;48.18
77839;SHT31;67034;43.226;27.932;2023-07-09T02:01:39;21.79;48.28
77839;SHT31;67034;43.226;27.932;2023-07-09T02:04:06;21.93;48.04
77839;SHT31;67034;43.226;27.932;2023-07-09T02:06:33;21.82;48.20
77839;SHT31;67034;43.226;27.932;2023-07-09T02:08:58;21.75;48.46
77839;SHT31;67034;43.226;27.932;2023-07-09T02:11:24;21.71;48.57
77839;SHT31;67034;43.226;27.932;2023-07-09T02:13:51;21.68;48.67
77839;SHT31;67034;43.226;27.932;2023-07-09T02:16:17;21.65;48.78
77839;SHT31;67034;43.226;27.932;2023-07-09T02:18:42;21.63;48.86
77839;SHT31;67034;43.226;27.932;2023-07-09T02:21:08;21.61;48.88
77839;SHT31;67034;43.226;27.932;2023-07-09T02:23:34;21.55;49.02
77839;SHT31;67034;43.226;27.932;2023-07-09T02:25:59;21.48;49.34
77839;SHT31;67034;43.226;27.932;2023-07-09T02:28:25;21.48;49.31
77839;SHT31;67034;43.226;27.932;2023-07-09T02:30:52;21.51;49.33
77839;SHT31;67034;43.226;27.932;2023-07-09T02:33:18;21.48;49.53
77839;SHT31;67034;43.226;27.932;2023-07-09T02:35:46;21.50;49.37
77839;SHT31;67034;43.226;27.932;2023-07-09T02:38:11;21.48;49.39
77839;SHT31;67034;43.226;27.932;2023-07-09T02:40:38;21.50;49.34
77839;SHT31;67034;43.226;27.932;2023-07-09T02:43:04;21.42;49.51
77839;SHT31;67034;43.226;27.932;2023-07-09T02:45:29;21.42;49.49
77839;SHT31;67034;43.226;27.932;2023-07-09T02:47:56;21.40;49.55
77839;SHT31;67034;43.226;27.932;2023-07-09T02:50:22;21.41;49.60
77839;SHT31;67034;43.226;27.932;2023-07-09T02:52:48;21.40;49.69
77839;SHT31;67034;43.226;27.932;2023-07-09T02:55:13;21.37;49.76
77839;SHT31;67034;43.226;27.932;2023-07-09T02:57:39;21.38;49.69
77839;SHT31;67034;43.226;27.932;2023-07-09T03:00:06;21.35;49.74
77839;SHT31;67034;43.226;27.932;2023-07-09T03:02:33;21.40;49.60
77839;SHT31;67034;43.226;27.932;2023-07-09T03:05:00;21.40;49.62
77839;SHT31;67034;43.226;27.932;2023-07-09T03:07:26;21.37;49.84
77839;SHT31;67034;43.226;27.932;2023-07-09T03:09:51;21.35;49.85
77839;SHT31;67034;43.226;27.932;2023-07-09T03:12:17;21.48;49.62
77839;SHT31;67034;43.226;27.932;2023-07-09T03:14:43;21.50;49.61
77839;SHT31;67034;43.226;27.932;2023-07-09T03:17:09;21.50;49.60
77839;SHT31;67034;43.226;27.932;2023-07-09T03:19:34;21.52;49.56
77839;SHT31;67034;43.226;27.932;2023-07-09T03:22:02;21.50;49.64
77839;SHT31;67034;43.226;27.932;2023-07-09T03:24:27;21.50;49.65
77839;SHT31;67034;43.226;27.932;2023-07-09T03:26:53;21.47;49.76
77839;SHT31;67034;43.226;27.932;2023-07-09T03:29:19;21.45;49.77
77839;SHT31;67034;43.226;27.932;2023-07-09T03:31:44;21.45;49.84
77839;SHT31;67034;43.226;27.932;2023-07-09T03:34:10;21.42;49.86
77839;SHT31;67034;43.226;27.932;2023-07-09T03:36:36;21.37;49.96
77839;SHT31;67034;43.226;27.932;2023-07-09T03:39:04;21.32;50.14
77839;SHT31;67034;43.226;27.932;2023-07-09T03:41:30;21.30;50.26
77839;SHT31;67034;43.226;27.932;2023-07-09T03:43:56;21.30;50.33
77839;SHT31;67034;43.226;27.932;2023-07-09T03:46:21;21.23;50.37
77839;SHT31;67034;43.226;27.932;2023-07-09T03:48:47;21.23;50.49
77839;SHT31;67034;43.226;27.932;2023-07-09T03:51:13;21.24;50.49
77839;SHT31;67034;43.226;27.932;2023-07-09T03:53:38;21.17;50.67
77839;SHT31;67034;43.226;27.932;2023-07-09T03:56:06;21.20;50.74
77839;SHT31;67034;43.226;27.932;2023-07-09T03:58:31;21.19;50.67
77839;SHT31;67034;43.226;27.932;2023-07-09T04:00:57;21.20;50.58
77839;SHT31;67034;43.226;27.932;2023-07-09T04:03:23;21.23;50.44
77839;SHT31;67034;43.226;27.932;2023-07-09T04:05:49;21.20;50.69
77839;SHT31;67034;43.226;27.932;2023-07-09T04:08:14;21.24;50.64
77839;SHT31;67034;43.226;27.932;2023-07-09T04:10:40;21.23;50.70
77839;SHT31;67034;43.226;27.932;2023-07-09T04:13:07;21.23;50.70
77839;SHT31;67034;43.226;27.932;2023-07-09T04:15:33;21.27;50.75
77839;SHT31;67034;43.226;27.932;2023-07-09T04:17:59;21.14;50.81
77839;SHT31;67034;43.226;27.932;2023-07-09T04:20:25;21.08;51.01
77839;SHT31;67034;43.226;27.932;2023-07-09T04:22:50;21.07;51.13
77839;SHT31;67034;43.226;27.932;2023-07-09T04:25:16;21.14;51.07
77839;SHT31;67034;43.226;27.932;2023-07-09T04:27:42;21.20;50.81
77839;SHT31;67034;43.226;27.932;2023-07-09T04:30:11;21.28;50.87
77839;SHT31;67034;43.226;27.932;2023-07-09T04:32:37;21.34;50.62
77839;SHT31;67034;43.226;27.932;2023-07-09T04:35:04;21.38;50.57
77839;SHT31;67034;43.226;27.932;2023-07-09T04:37:33;21.35;50.58
77839;SHT31;67034;43.226;27.932;2023-07-09T04:39:59;21.41;50.63
77839;SHT31;67034;43.226;27.932;2023-07-09T04:42:25;21.42;50.49
77839;SHT31;67034;43.226;27.932;2023-07-09T04:44:50;21.45;50.40
77839;SHT31;67034;43.226;27.932;2023-07-09T04:47:17;21.40;50.51
77839;SHT31;67034;43.226;27.932;2023-07-09T04:49:43;21.42;50.45
77839;SHT31;67034;43.226;27.932;2023-07-09T04:52:09;21.50;50.12
77839;SHT31;67034;43.226;27.932;2023-07-09T04:54:39;21.52;50.09
77839;SHT31;67034;43.226;27.932;2023-07-09T04:57:05;21.42;50.35
77839;SHT31;67034;43.226;27.932;2023-07-09T04:59:31;21.44;50.49
77839;SHT31;67034;43.226;27.932;2023-07-09T05:01:57;21.45;50.52
77839;SHT31;67034;43.226;27.932;2023-07-09T05:04:24;21.47;50.49
77839;SHT31;67034;43.226;27.932;2023-07-09T05:06:50;21.55;50.26
77839;SHT31;67034;43.226;27.932;2023-07-09T05:09:15;21.74;50.01
77839;SHT31;67034;43.226;27.932;2023-07-09T05:11:41;21.89;49.19
77839;SHT31;67034;43.226;27.932;2023-07-09T05:14:07;22.06;49.14
77839;SHT31;67034;43.226;27.932;2023-07-09T05:16:32;22.20;48.72
77839;SHT31;67034;43.226;27.932;2023-07-09T05:18:58;22.29;48.51
77839;SHT31;67034;43.226;27.932;2023-07-09T05:21:25;22.41;47.99
77839;SHT31;67034;43.226;27.932;2023-07-09T05:23:51;22.54;48.19
77839;SHT31;67034;43.226;27.932;2023-07-09T05:26:17;22.63;47.81
77839;SHT31;67034;43.226;27.932;2023-07-09T05:28:42;22.71;47.41
77839;SHT31;67034;43.226;27.932;2023-07-09T05:31:08;22.81;47.25
77839;SHT31;67034;43.226;27.932;2023-07-09T05:33:34;22.92;47.12
77839;SHT31;67034;43.226;27.932;2023-07-09T05:36:00;22.96;47.03
77839;SHT31;67034;43.226;27.932;2023-07-09T05:38:28;23.04;46.99
77839;SHT31;67034;43.226;27.932;2023-07-09T05:41:01;23.11;46.96
77839;SHT31;67034;43.226;27.932;2023-07-09T05:43:27;23.12;47.23
77839;SHT31;67034;43.226;27.932;2023-07-09T05:45:52;23.08;46.90
77839;SHT31;67034;43.226;27.932;2023-07-09T05:48:18;22.99;47.21
77839;SHT31;67034;43.226;27.932;2023-07-09T05:50:44;22.99;47.10
77839;SHT31;67034;43.226;27.932;2023-07-09T05:53:09;22.99;46.98
77839;SHT31;67034;43.226;27.932;2023-07-09T05:55:38;23.02;47.02
77839;SHT31;67034;43.226;27.932;2023-07-09T05:58:03;23.05;47.05
77839;SHT31;67034;43.226;27.932;2023-07-09T06:00:29;23.19;46.95
77839;SHT31;67034;43.226;27.932;2023-07-09T06:02:55;23.32;46.64
77839;SHT31;67034;43.226;27.932;2023-07-09T06:05:21;23.26;46.15
77839;SHT31;67034;43.226;27.932;2023-07-09T06:07:47;23.30;46.12
77839;SHT31;67034;43.226;27.932;2023-07-09T06:10:13;23.33;46.14
77839;SHT31;67034;43.226;27.932;2023-07-09T06:12:40;23.36;45.83
77839;SHT31;67034;43.226;27.932;2023-07-09T06:15:07;23.42;46.17
77839;SHT31;67034;43.226;27.932;2023-07-09T06:17:35;23.47;46.28
77839;SHT31;67034;43.226;27.932;2023-07-09T06:20:01;23.57;46.02
77839;SHT31;67034;43.226;27.932;2023-07-09T06:22:27;23.57;45.53
77839;SHT31;67034;43.226;27.932;2023-07-09T06:24:54;23.54;45.71
77839;SHT31;67034;43.226;27.932;2023-07-09T06:27:19;23.53;45.76
77839;SHT31;67034;43.226;27.932;2023-07-09T06:29:46;23.52;45.81
77839;SHT31;67034;43.226;27.932;2023-07-09T06:32:12;23.47;46.18
77839;SHT31;67034;43.226;27.932;2023-07-09T06:34:38;23.53;46.64
77839;SHT31;67034;43.226;27.932;2023-07-09T06:37:03;23.54;46.44
77839;SHT31;67034;43.226;27.932;2023-07-09T06:39:30;23.60;46.13
77839;SHT31;67034;43.226;27.932;2023-07-09T06:41:56;23.75;45.68
77839;SHT31;67034;43.226;27.932;2023-07-09T06:44:21;23.87;45.36
77839;SHT31;67034;43.226;27.932;2023-07-09T06:46:49;23.93;43.94
77839;SHT31;67034;43.226;27.932;2023-07-09T06:49:14;23.90;43.60
77839;SHT31;67034;43.226;27.932;2023-07-09T06:51:40;23.98;43.56
77839;SHT31;67034;43.226;27.932;2023-07-09T06:54:06;24.10;43.54
77839;SHT31;67034;43.226;27.932;2023-07-09T06:56:34;24.14;43.09
77839;SHT31;67034;43.226;27.932;2023-07-09T06:58:59;24.15;43.04
77839;SHT31;67034;43.226;27.932;2023-07-09T07:01:25;24.14;43.28
77839;SHT31;67034;43.226;27.932;2023-07-09T07:03:52;24.21;43.05
77839;SHT31;67034;43.226;27.932;2023-07-09T07:06:18;24.22;42.34
77839;SHT31;67034;43.226;27.932;2023-07-09T07:08:44;24.22;42.35
77839;SHT31;67034;43.226;27.932;2023-07-09T07:11:09;24.20;42.53
77839;SHT31;67034;43.226;27.932;2023-07-09T07:13:37;24.20;42.92
77839;SHT31;67034;43.226;27.932;2023-07-09T07:16:05;24.31;42.69
77839;SHT31;67034;43.226;27.932;2023-07-09T07:18:31;24.33;42.41
77839;SHT31;67034;43.226;27.932;2023-07-09T07:20:59;24.31;42.36
77839;SHT31;67034;43.226;27.932;2023-07-09T07:23:25;24.39;42.58
77839;SHT31;67034;43.226;27.932;2023-07-09T07:25:50;24.36;42.59
77839;SHT31;67034;43.226;27.932;2023-07-09T07:28:17;24.39;42.69
77839;SHT31;67034;43.226;27.932;2023-07-09T07:30:43;24.39;42.86
77839;SHT31;67034;43.226;27.932;2023-07-09T07:33:09;24.36;42.80
77839;SHT31;67034;43.226;27.932;2023-07-09T07:35:35;24.47;42.75
77839;SHT31;67034;43.226;27.932;2023-07-09T07:38:03;24.56;42.49
77839;SHT31;67034;43.226;27.932;2023-07-09T07:40:28;24.75;42.25
77839;SHT31;67034;43.226;27.932;2023-07-09T07:42:54;24.87;41.15
77839;SHT31;67034;43.226;27.932;2023-07-09T07:45:21;25.07;41.31
77839;SHT31;67034;43.226;27.932;2023-07-09T07:47:46;25.31;40.98
77839;SHT31;67034;43.226;27.932;2023-07-09T07:50:13;25.49;40.98
77839;SHT31;67034;43.226;27.932;2023-07-09T07:52:39;25.57;39.90
77839;SHT31;67034;43.226;27.932;2023-07-09T07:55:07;25.37;40.28
77839;SHT31;67034;43.226;27.932;2023-07-09T07:57:34;25.31;40.58
77839;SHT31;67034;43.226;27.932;2023-07-09T08:00:00;25.30;40.07
77839;SHT31;67034;43.226;27.932;2023-07-09T08:02:25;25.34;40.62
77839;SHT31;67034;43.226;27.932;2023-07-09T08:04:51;25.38;40.05
77839;SHT31;67034;43.226;27.932;2023-07-09T08:07:18;25.38;39.77
77839;SHT31;67034;43.226;27.932;2023-07-09T08:09:44;25.33;40.04
77839;SHT31;67034;43.226;27.932;2023-07-09T08:12:13;25.28;40.50
77839;SHT31;67034;43.226;27.932;2023-07-09T08:14:40;25.30;40.69
77839;SHT31;67034;43.226;27.932;2023-07-09T08:17:06;25.26;40.02
77839;SHT31;67034;43.226;27.932;2023-07-09T08:19:43;25.23;39.88
77839;SHT31;67034;43.226;27.932;2023-07-09T08:22:09;25.26;39.75
77839;SHT31;67034;43.226;27.932;2023-07-09T08:24:35;25.28;40.31
77839;SHT31;67034;43.226;27.932;2023-07-09T08:27:00;25.42;40.21
77839;SHT31;67034;43.226;27.932;2023-07-09T08:29:28;25.64;39.63
77839;SHT31;67034;43.226;27.932;2023-07-09T08:31:53;25.75;39.39
77839;SHT31;67034;43.226;27.932;2023-07-09T08:34:19;25.92;39.76
77839;SHT31;67034;43.226;27.932;2023-07-09T08:36:45;25.97;38.60
77839;SHT31;67034;43.226;27.932;2023-07-09T08:39:10;26.03;39.01
77839;SHT31;67034;43.226;27.932;2023-07-09T08:41:39;26.09;39.15
77839;SHT31;67034;43.226;27.932;2023-07-09T08:44:16;26.15;38.84
77839;SHT31;67034;43.226;27.932;2023-07-09T08:46:54;26.24;39.16
77839;SHT31;67034;43.226;27.932;2023-07-09T08:49:33;26.30;38.94
77839;SHT31;67034;43.226;27.932;2023-07-09T08:52:00;26.50;38.98
77839;SHT31;67034;43.226;27.932;2023-07-09T08:54:28;26.65;38.37
77839;SHT31;67034;43.226;27.932;2023-07-09T08:57:00;26.80;38.58
77839;SHT31;67034;43.226;27.932;2023-07-09T08:59:30;26.96;38.17
77839;SHT31;67034;43.226;27.932;2023-07-09T09:01:59;27.08;36.94
77839;SHT31;67034;43.226;27.932;2023-07-09T09:04:28;27.13;36.82
77839;SHT31;67034;43.226;27.932;2023-07-09T09:07:00;27.19;36.55
77839;SHT31;67034;43.226;27.932;2023-07-09T09:09:35;27.01;36.50
77839;SHT31;67034;43.226;27.932;2023-07-09T09:12:11;27.13;36.54
77839;SHT31;67034;43.226;27.932;2023-07-09T09:14:42;27.16;36.47
77839;SHT31;67034;43.226;27.932;2023-07-09T09:17:13;27.15;36.54
77839;SHT31;67034;43.226;27.932;2023-07-09T09:19:42;27.12;36.48
77839;SHT31;67034;43.226;27.932;2023-07-09T09:22:11;27.09;36.75
77839;SHT31;67034;43.226;27.932;2023-07-09T09:24:47;27.08;37.16
77839;SHT31;67034;43.226;27.932;2023-07-09T09:27:18;27.22;37.32
77839;SHT31;67034;43.226;27.932;2023-07-09T09:29:44;27.47;36.90
77839;SHT31;67034;43.226;27.932;2023-07-09T09:32:21;27.49;36.67
77839;SHT31;67034;43.226;27.932;2023-07-09T09:34:48;27.53;37.21
77839;SHT31;67034;43.226;27.932;2023-07-09T09:37:25;27.60;36.47
77839;SHT31;67034;43.226;27.932;2023-07-09T09:39:51;27.67;35.35
77839;SHT31;67034;43.226;27.932;2023-07-09T09:42:17;27.52;35.90
77839;SHT31;67034;43.226;27.932;2023-07-09T09:44:44;27.39;35.73
77839;SHT31;67034;43.226;27.932;2023-07-09T09:47:11;27.40;36.00
77839;SHT31;67034;43.226;27.932;2023-07-09T09:49:45;27.42;36.49
77839;SHT31;67034;43.226;27.932;2023-07-09T09:52:13;27.63;36.21
77839;SHT31;67034;43.226;27.932;2023-07-09T09:54:41;27.83;36.25
77839;SHT31;67034;43.226;27.932;2023-07-09T09:57:15;27.84;35.72
77839;SHT31;67034;43.226;27.932;2023-07-09T09:59:42;27.81;35.32
77839;SHT31;67034;43.226;27.932;2023-07-09T10:02:15;27.91;35.24
77839;SHT31;67034;43.226;27.932;2023-07-09T10:04:43;28.10;35.15
77839;SHT31;67034;43.226;27.932;2023-07-09T10:07:18;28.45;35.18
77839;SHT31;67034;43.226;27.932;2023-07-09T10:09:47;28.77;35.02
77839;SHT31;67034;43.226;27.932;2023-07-09T10:12:18;28.95;33.08
77839;SHT31;67034;43.226;27.932;2023-07-09T10:14:54;29.02;32.90
77839;SHT31;67034;43.226;27.932;2023-07-09T10:17:31;29.16;32.09
77839;SHT31;67034;43.226;27.932;2023-07-09T10:20:07;29.34;33.03
77839;SHT31;67034;43.226;27.932;2023-07-09T10:22:40;29.54;32.89
77839;SHT31;67034;43.226;27.932;2023-07-09T10:25:16;29.61;33.11
77839;SHT31;67034;43.226;27.932;2023-07-09T10:27:59;29.71;31.50
77839;SHT31;67034;43.226;27.932;2023-07-09T10:30:39;29.72;32.51
77839;SHT31;67034;43.226;27.932;2023-07-09T10:33:08;29.89;32.92
77839;SHT31;67034;43.226;27.932;2023-07-09T10:35:40;30.05;32.63
77839;SHT31;67034;43.226;27.932;2023-07-09T10:38:17;30.05;32.57
77839;SHT31;67034;43.226;27.932;2023-07-09T10:40:48;30.08;31.26
77839;SHT31;67034;43.226;27.932;2023-07-09T10:43:20;29.84;31.72
77839;SHT31;67034;43.226;27.932;2023-07-09T10:45:53;29.66;32.03
77839;SHT31;67034;43.226;27.932;2023-07-09T10:48:26;29.69;32.61
77839;SHT31;67034;43.226;27.932;2023-07-09T10:50:56;29.74;32.08
77839;SHT31;67034;43.226;27.932;2023-07-09T10:53:30;29.75;31.77
77839;SHT31;67034;43.226;27.932;2023-07-09T10:56:00;29.62;31.93
77839;SHT31;67034;43.226;27.932;2023-07-09T10:58:32;29.71;31.59
77839;SHT31;67034;43.226;27.932;2023-07-09T11:01:00;29.61;31.79
77839;SHT31;67034;43.226;27.932;2023-07-09T11:03:35;29.50;31.59
77839;SHT31;67034;43.226;27.932;2023-07-09T11:06:12;29.78;31.59
77839;SHT31;67034;43.226;27.932;2023-07-09T11:08:40;30.06;31.97
77839;SHT31;67034;43.226;27.932;2023-07-09T11:11:10;30.13;31.72
77839;SHT31;67034;43.226;27.932;2023-07-09T11:13:40;30.29;30.83
77839;SHT31;67034;43.226;27.932;2023-07-09T11:16:12;30.37;31.32
77839;SHT31;67034;43.226;27.932;2023-07-09T11:18:39;30.50;31.11
77839;SHT31;67034;43.226;27.932;2023-07-09T11:21:13;30.37;31.40
77839;SHT31;67034;43.226;27.932;2023-07-09T11:23:47;30.30;31.54
77839;SHT31;67034;43.226;27.932;2023-07-09T11:26:22;30.33;32.00
77839;SHT31;67034;43.226;27.932;2023-07-09T11:28:51;30.41;32.19
77839;SHT31;67034;43.226;27.932;2023-07-09T11:31:21;30.57;30.36
77839;SHT31;67034;43.226;27.932;2023-07-09T11:33:49;30.78;30.32
77839;SHT31;67034;43.226;27.932;2023-07-09T11:36:27;30.70;30.61
77839;SHT31;67034;43.226;27.932;2023-07-09T11:38:54;30.72;31.13
77839;SHT31;67034;43.226;27.932;2023-07-09T11:41:34;30.61;30.67
77839;SHT31;67034;43.226;27.932;2023-07-09T11:44:09;30.67;29.97
77839;SHT31;67034;43.226;27.932;2023-07-09T11:46:44;30.60;30.40
77839;SHT31;67034;43.226;27.932;2023-07-09T11:49:13;30.70;29.85
77839;SHT31;67034;43.226;27.932;2023-07-09T11:51:44;30.74;29.91
77839;SHT31;67034;43.226;27.932;2023-07-09T11:54:11;30.98;30.57
77839;SHT31;67034;43.226;27.932;2023-07-09T11:56:40;30.96;28.63
77839;SHT31;67034;43.226;27.932;2023-07-09T11:59:10;30.98;29.12
77839;SHT31;67034;43.226;27.932;2023-07-09T12:01:45;30.99;29.32
77839;SHT31;67034;43.226;27.932;2023-07-09T12:04:16;31.11;29.06
77839;SHT31;67034;43.226;27.932;2023-07-09T12:06:44;31.15;29.53
77839;SHT31;67034;43.226;27.932;2023-07-09T12:09:14;31.30;29.17
77839;SHT31;67034;43.226;27.932;2023-07-09T12:11:44;31.22;29.04
77839;SHT31;67034;43.226;27.932;2023-07-09T12:14:12;31.26;29.76
77839;SHT31;67034;43.226;27.932;2023-07-09T12:16:41;31.47;29.30
77839;SHT31;67034;43.226;27.932;2023-07-09T12:19:08;31.51;29.25
77839;SHT31;67034;43.226;27.932;2023-07-09T12:21:38;31.56;29.17
77839;SHT31;67034;43.226;27.932;2023-07-09T12:24:17;31.51;29.05
77839;SHT31;67034;43.226;27.932;2023-07-09T12:26:43;31.45;28.79
77839;SHT31;67034;43.226;27.932;2023-07-09T12:29:12;31.39;29.08
77839;SHT31;67034;43.226;27.932;2023-07-09T12:31:39;31.54;29.06
77839;SHT31;67034;43.226;27.932;2023-07-09T12:34:05;31.62;29.18
77839;SHT31;67034;43.226;27.932;2023-07-09T12:36:30;31.69;29.30
77839;SHT31;67034;43.226;27.932;2023-07-09T12:39:01;31.70;28.58
77839;SHT31;67034;43.226;27.932;2023-07-09T12:41:35;31.78;29.18
77839;SHT31;67034;43.226;27.932;2023-07-09T12:44:02;31.83;29.04
77839;SHT31;67034;43.226;27.932;2023-07-09T12:46:28;31.63;28.83
77839;SHT31;67034;43.226;27.932;2023-07-09T12:48:54;31.46;28.99
77839;SHT31;67034;43.226;27.932;2023-07-09T12:51:24;31.46;29.31
77839;SHT31;67034;43.226;27.932;2023-07-09T12:54:00;31.43;29.27
77839;SHT31;67034;43.226;27.932;2023-07-09T12:56:26;31.35;29.56
77839;SHT31;67034;43.226;27.932;2023-07-09T12:58:56;31.35;29.63
77839;SHT31;67034;43.226;27.932;2023-07-09T13:01:23;31.51;28.75
77839;SHT31;67034;43.226;27.932;2023-07-09T13:03:55;31.66;28.56
77839;SHT31;67034;43.226;27.932;2023-07-09T13:06:26;31.65;29.19
77839;SHT31;67034;43.226;27.932;2023-07-09T13:08:56;31.59;28.90
77839;SHT31;67034;43.226;27.932;2023-07-09T13:11:21;31.57;29.22
77839;SHT31;67034;43.226;27.932;2023-07-09T13:14:01;31.43;28.93
77839;SHT31;67034;43.226;27.932;2023-07-09T13:16:27;31.53;29.04
77839;SHT31;67034;43.226;27.932;2023-07-09T13:18:53;31.54;29.09
77839;SHT31;67034;43.226;27.932;2023-07-09T13:21:20;31.59;28.49
77839;SHT31;67034;43.226;27.932;2023-07-09T13:23:46;31.69;28.41
77839;SHT31;67034;43.226;27.932;2023-07-09T13:26:13;31.74;27.79
77839;SHT31;67034;43.226;27.932;2023-07-09T13:28:38;31.87;27.60
77839;SHT31;67034;43.226;27.932;2023-07-09T13:31:11;31.73;28.24
77839;SHT31;67034;43.226;27.932;2023-07-09T13:33:38;31.59;28.63
77839;SHT31;67034;43.226;27.932;2023-07-09T13:36:04;31.73;28.50
77839;SHT31;67034;43.226;27.932;2023-07-09T13:38:32;31.65;28.86
77839;SHT31;67034;43.226;27.932;2023-07-09T13:41:00;31.60;28.65
77839;SHT31;67034;43.226;27.932;2023-07-09T13:43:29;31.60;28.05
77839;SHT31;67034;43.226;27.932;2023-07-09T13:45:56;31.65;28.42
77839;SHT31;67034;43.226;27.932;2023-07-09T13:48:24;31.81;28.79
77839;SHT31;67034;43.226;27.932;2023-07-09T13:50:52;32.00;28.39
77839;SHT31;67034;43.226;27.932;2023-07-09T13:53:21;32.28;28.25
77839;SHT31;67034;43.226;27.932;2023-07-09T13:55:47;32.55;27.81
77839;SHT31;67034;43.226;27.932;2023-07-09T13:58:15;32.73;27.79
77839;SHT31;67034;43.226;27.932;2023-07-09T14:00:42;32.68;27.81
77839;SHT31;67034;43.226;27.932;2023-07-09T14:03:14;32.68;27.52
77839;SHT31;67034;43.226;27.932;2023-07-09T14:05:42;32.48;27.56
77839;SHT31;67034;43.226;27.932;2023-07-09T14:08:08;32.29;27.62
77839;SHT31;67034;43.226;27.932;2023-07-09T14:10:34;32.17;27.69
77839;SHT31;67034;43.226;27.932;2023-07-09T14:13:00;32.08;28.42
77839;SHT31;67034;43.226;27.932;2023-07-09T14:15:27;32.23;27.77
77839;SHT31;67034;43.226;27.932;2023-07-09T14:17:53;32.17;27.82
77839;SHT31;67034;43.226;27.932;2023-07-09T14:20:20;32.07;28.28
77839;SHT31;67034;43.226;27.932;2023-07-09T14:22:48;32.14;28.19
77839;SHT31;67034;43.226;27.932;2023-07-09T14:25:18;32.55;27.95
77839;SHT31;67034;43.226;27.932;2023-07-09T14:27:44;32.85;27.45
77839;SHT31;67034;43.226;27.932;2023-07-09T14:30:14;32.92;27.47
77839;SHT31;67034;43.226;27.932;2023-07-09T14:32:40;32.95;27.68
77839;SHT31;67034;43.226;27.932;2023-07-09T14:35:12;32.78;27.76
77839;SHT31;67034;43.226;27.932;2023-07-09T14:37:39;32.61;27.74
77839;SHT31;67034;43.226;27.932;2023-07-09T14:40:08;32.32;28.15
77839;SHT31;67034;43.226;27.932;2023-07-09T14:42:35;32.03;28.56
77839;SHT31;67034;43.226;27.932;2023-07-09T14:45:01;31.86;29.17
77839;SHT31;67034;43.226;27.932;2023-07-09T14:47:27;32.00;29.31
77839;SHT31;67034;43.226;27.932;2023-07-09T14:49:53;32.23;29.13
77839;SHT31;67034;43.226;27.932;2023-07-09T14:52:20;32.31;28.77
77839;SHT31;67034;43.226;27.932;2023-07-09T14:54:47;32.07;28.95
77839;SHT31;67034;43.226;27.932;2023-07-09T14:57:19;31.83;29.62
77839;SHT31;67034;43.226;27.932;2023-07-09T14:59:46;31.70;30.04
77839;SHT31;67034;43.226;27.932;2023-07-09T15:02:21;31.54;30.13
77839;SHT31;67034;43.226;27.932;2023-07-09T15:04:48;31.49;30.50
77839;SHT31;67034;43.226;27.932;2023-07-09T15:07:13;31.63;30.21
77839;SHT31;67034;43.226;27.932;2023-07-09T15:09:40;31.62;30.54
77839;SHT31;67034;43.226;27.932;2023-07-09T15:12:14;31.62;30.43
77839;SHT31;67034;43.226;27.932;2023-07-09T15:14:42;31.50;30.50
77839;SHT31;67034;43.226;27.932;2023-07-09T15:17:08;31.26;31.09
77839;SHT31;67034;43.226;27.932;2023-07-09T15:19:35;30.87;31.39